createdAt,value
2018-10-12T00:00:48.640Z,6.23
2018-10-12T00:03:16.827Z,6.40
2018-10-12T00:05:44.959Z,6.60
2018-10-12T00:08:13.126Z,6.00
2018-10-12T00:10:41.259Z,5.63
2018-10-12T00:13:09.472Z,5.77
2018-10-12T00:15:37.601Z,8.27
2018-10-12T00:18:05.800Z,8.20
2018-10-12T00:20:34.045Z,9.77
2018-10-12T00:23:02.175Z,7.80
2018-10-12T00:25:30.309Z,7.03
2018-10-12T00:27:58.464Z,9.67
2018-10-12T00:30:26.621Z,8.17
2018-10-12T00:32:54.752Z,8.83
2018-10-12T00:35:22.925Z,8.30
2018-10-12T00:37:51.129Z,8.43
2018-10-12T00:40:19.301Z,9.70
2018-10-12T00:42:48.752Z,10.27
2018-10-12T00:45:16.988Z,10.83
2018-10-12T00:47:48.767Z,9.83
2018-10-12T00:50:16.909Z,9.73
2018-10-12T00:52:45.093Z,11.07
2018-10-12T00:55:13.206Z,9.43
2018-10-12T00:57:41.376Z,10.17
2018-10-12T01:00:09.571Z,9.43
2018-10-12T01:02:37.729Z,9.33
2018-10-12T01:05:05.913Z,10.17
2018-10-12T01:07:34.030Z,10.57
2018-10-12T01:10:02.217Z,10.97
2018-10-12T01:12:31.513Z,10.47
2018-10-12T01:15:00.117Z,10.03
2018-10-12T01:17:28.711Z,9.73
2018-10-12T01:19:57.336Z,9.77
2018-10-12T01:22:26.446Z,9.50
2018-10-12T01:24:55.242Z,9.57
2018-10-12T01:27:23.686Z,9.73
2018-10-12T01:29:52.050Z,10.00
2018-10-12T01:32:25.622Z,9.73
2018-10-12T01:34:54.300Z,9.90
2018-10-12T01:37:22.574Z,9.90
2018-10-12T01:39:50.779Z,9.37
2018-10-12T01:42:18.996Z,9.73
2018-10-12T01:44:47.137Z,9.13
2018-10-12T01:47:15.770Z,8.70
2018-10-12T01:49:44.249Z,10.03
2018-10-12T01:52:13.410Z,9.40
2018-10-12T01:54:41.874Z,10.03
2018-10-12T01:57:10.967Z,9.73
2018-10-12T01:59:39.126Z,9.87
2018-10-12T02:02:07.463Z,9.33
2018-10-12T02:04:35.638Z,10.17
2018-10-12T02:07:04.309Z,9.07
2018-10-12T02:09:32.552Z,9.27
2018-10-12T02:12:00.700Z,9.57
2018-10-12T02:14:29.756Z,10.30
2018-10-12T02:16:58.229Z,9.33
2018-10-12T02:19:26.771Z,9.57
2018-10-12T02:21:55.375Z,8.57
2018-10-12T02:24:23.872Z,9.37
2018-10-12T02:26:52.375Z,8.60
2018-10-12T02:29:20.847Z,9.83
2018-10-12T02:31:49.382Z,10.13
2018-10-12T02:34:17.815Z,8.30
2018-10-12T02:36:46.307Z,8.70
2018-10-12T02:39:15.775Z,9.77
2018-10-12T02:41:44.256Z,9.60
2018-10-12T02:44:13.122Z,9.33
2018-10-12T02:46:41.639Z,8.63
2018-10-12T02:49:09.844Z,8.53
2018-10-12T02:51:38.173Z,8.13
2018-10-12T02:54:06.389Z,8.03
2018-10-12T02:56:34.503Z,8.20
2018-10-12T02:59:03.063Z,8.73
2018-10-12T03:01:31.529Z,8.47
2018-10-12T03:04:00.059Z,9.73
2018-10-12T03:06:28.839Z,9.13
2018-10-12T03:08:57.358Z,9.80
2018-10-12T03:11:25.806Z,10.03
2018-10-12T03:13:54.330Z,9.37
2018-10-12T03:16:22.922Z,9.67
2018-10-12T03:18:51.364Z,9.10
2018-10-12T03:21:19.874Z,8.67
2018-10-12T03:23:48.341Z,9.47
2018-10-12T03:26:16.486Z,10.07
2018-10-12T03:28:45.046Z,8.73
2018-10-12T03:31:13.613Z,11.30
2018-10-12T03:33:42.196Z,10.93
2018-10-12T03:36:10.360Z,10.60
2018-10-12T03:38:38.496Z,10.20
2018-10-12T03:41:06.639Z,9.70
2018-10-12T03:43:34.770Z,9.03
2018-10-12T03:46:02.988Z,10.07
2018-10-12T03:48:31.169Z,9.33
2018-10-12T03:50:59.354Z,9.87
2018-10-12T03:53:27.506Z,11.00
2018-10-12T03:55:55.629Z,10.07
2018-10-12T03:58:23.808Z,9.57
2018-10-12T04:00:51.920Z,12.50
2018-10-12T04:03:20.062Z,10.93
2018-10-12T04:05:48.182Z,10.33
2018-10-12T04:08:16.324Z,10.60
2018-10-12T04:10:44.516Z,10.00
2018-10-12T04:13:12.678Z,10.20
2018-10-12T04:15:40.841Z,10.00
2018-10-12T04:18:09.207Z,9.90
2018-10-12T04:20:37.393Z,9.27
2018-10-12T04:23:05.702Z,10.57
2018-10-12T04:25:33.896Z,10.30
2018-10-12T04:28:02.263Z,10.53
2018-10-12T04:30:30.493Z,11.17
2018-10-12T04:33:02.535Z,9.70
2018-10-12T04:35:30.809Z,9.83
2018-10-12T04:37:58.988Z,9.97
2018-10-12T04:40:33.285Z,10.00
2018-10-12T04:43:01.493Z,11.13
2018-10-12T04:45:29.646Z,9.90
2018-10-12T04:47:57.851Z,10.80
2018-10-12T04:50:26.031Z,10.07
2018-10-12T04:52:54.217Z,10.57
2018-10-12T04:55:22.435Z,10.87
2018-10-12T04:57:50.601Z,10.90
2018-10-12T05:00:18.851Z,11.73
2018-10-12T05:02:47.015Z,9.67
2018-10-12T05:05:15.199Z,10.00
2018-10-12T05:07:43.582Z,10.67
2018-10-12T05:10:11.837Z,10.77
2018-10-12T05:12:40.113Z,10.70
2018-10-12T05:15:08.313Z,13.00
2018-10-12T05:17:36.545Z,12.33
2018-10-12T05:20:04.829Z,12.87
2018-10-12T05:22:33.071Z,13.27
2018-10-12T05:25:01.519Z,12.73
2018-10-12T05:27:30.905Z,12.60
2018-10-12T05:29:59.076Z,11.90
2018-10-12T05:32:27.445Z,12.93
2018-10-12T05:34:55.905Z,12.27
2018-10-12T05:37:24.180Z,13.90
2018-10-12T05:39:52.582Z,11.93
2018-10-12T05:42:20.879Z,13.13
2018-10-12T05:44:49.068Z,11.93
2018-10-12T05:47:17.218Z,12.20
2018-10-12T05:49:53.552Z,13.03
2018-10-12T05:52:21.717Z,11.67
2018-10-12T05:54:49.973Z,14.07
2018-10-12T05:57:18.138Z,13.20
2018-10-12T05:59:46.364Z,13.17
2018-10-12T06:02:14.547Z,13.33
2018-10-12T06:04:42.681Z,13.50
2018-10-12T06:07:11.029Z,13.63
2018-10-12T06:09:39.234Z,13.37
2018-10-12T06:12:07.367Z,13.20
2018-10-12T06:14:35.475Z,12.73
2018-10-12T06:17:03.648Z,13.30
2018-10-12T06:19:31.780Z,12.30
2018-10-12T06:22:00.001Z,11.67
2018-10-12T06:24:28.356Z,11.47
2018-10-12T06:26:56.546Z,12.10
2018-10-12T06:29:24.640Z,12.90
2018-10-12T06:31:52.834Z,13.87
2018-10-12T06:34:20.944Z,13.23
2018-10-12T06:36:49.031Z,12.13
2018-10-12T06:39:17.176Z,11.97
2018-10-12T06:41:45.420Z,11.40
2018-10-12T06:44:13.456Z,13.43
2018-10-12T06:46:41.620Z,12.47
2018-10-12T06:49:09.737Z,13.70
2018-10-12T06:51:37.904Z,13.87
2018-10-12T06:54:06.151Z,11.77
2018-10-12T06:56:34.228Z,12.20
2018-10-12T06:59:02.470Z,13.80
2018-10-12T07:01:30.847Z,11.73
2018-10-12T07:03:59.423Z,11.17
2018-10-12T07:06:27.566Z,12.20
2018-10-12T07:08:55.674Z,11.60
2018-10-12T07:11:23.733Z,11.80
2018-10-12T07:13:51.970Z,11.07
2018-10-12T07:16:20.615Z,12.13
2018-10-12T07:18:49.471Z,11.33
2018-10-12T07:21:17.581Z,12.07
2018-10-12T07:23:45.700Z,12.90
2018-10-12T07:26:13.830Z,13.30
2018-10-12T07:28:42.002Z,13.60
2018-10-12T07:31:10.138Z,13.87
2018-10-12T07:33:38.259Z,13.67
2018-10-12T07:36:06.369Z,13.63
2018-10-12T07:38:35.193Z,13.50
2018-10-12T07:41:03.399Z,12.93
2018-10-12T07:43:31.557Z,12.70
2018-10-12T07:45:59.746Z,13.10
2018-10-12T07:48:27.861Z,13.60
2018-10-12T07:50:56.070Z,13.07
2018-10-12T07:53:24.256Z,12.20
2018-10-12T07:55:52.402Z,13.23
2018-10-12T07:58:20.529Z,13.80
2018-10-12T08:00:48.697Z,13.10
2018-10-12T08:03:16.820Z,12.63
2018-10-12T08:05:44.966Z,13.67
2018-10-12T08:08:13.043Z,12.67
2018-10-12T08:10:41.201Z,14.97
2018-10-12T08:13:09.474Z,12.57
2018-10-12T08:15:37.639Z,12.97
2018-10-12T08:18:05.746Z,12.53
2018-10-12T08:20:34.092Z,13.13
2018-10-12T08:23:02.036Z,12.57
2018-10-12T08:25:30.158Z,12.57
2018-10-12T08:27:58.329Z,11.60
2018-10-12T08:30:26.498Z,12.27
2018-10-12T08:32:54.728Z,12.17
2018-10-12T08:35:22.888Z,13.00
2018-10-12T08:37:51.023Z,13.63
2018-10-12T08:40:19.159Z,12.27
2018-10-12T08:42:47.282Z,12.90
2018-10-12T08:45:15.394Z,11.93
2018-10-12T08:47:43.672Z,13.50
2018-10-12T08:50:11.831Z,13.03
2018-10-12T08:52:40.001Z,13.73
2018-10-12T08:55:08.177Z,12.53
2018-10-12T08:57:36.246Z,12.33
2018-10-12T09:00:04.852Z,12.03
2018-10-12T09:02:33.037Z,12.90
2018-10-12T09:05:01.155Z,12.57
2018-10-12T09:07:29.583Z,12.37
2018-10-12T09:09:57.748Z,12.33
2018-10-12T09:12:25.894Z,12.37
2018-10-12T09:14:53.996Z,12.67
2018-10-12T09:17:22.744Z,12.37
2018-10-12T09:19:50.951Z,12.63
2018-10-12T09:22:19.112Z,13.03
2018-10-12T09:24:47.280Z,11.40
2018-10-12T09:27:15.494Z,11.50
2018-10-12T09:29:43.617Z,11.70
2018-10-12T09:32:11.819Z,11.50
2018-10-12T09:34:39.967Z,11.60
2018-10-12T09:37:08.321Z,11.07
2018-10-12T09:39:36.427Z,11.73
2018-10-12T09:42:04.573Z,11.20
2018-10-12T09:44:32.774Z,10.90
2018-10-12T09:47:00.892Z,10.80
2018-10-12T09:49:29.315Z,11.03
2018-10-12T09:51:58.571Z,11.27
2018-10-12T09:54:26.696Z,11.23
2018-10-12T09:57:00.224Z,10.40
2018-10-12T09:59:28.396Z,10.80
2018-10-12T10:02:02.019Z,10.63
2018-10-12T10:04:32.674Z,10.30
2018-10-12T10:07:03.589Z,10.27
2018-10-12T10:09:31.799Z,10.30
2018-10-12T10:11:59.998Z,10.37
2018-10-12T10:14:28.677Z,9.40
2018-10-12T10:16:56.876Z,9.53
2018-10-12T10:19:25.006Z,9.60
2018-10-12T10:21:53.124Z,9.13
2018-10-12T10:24:21.231Z,9.17
2018-10-12T10:26:49.403Z,9.40
2018-10-12T10:29:17.606Z,9.10
2018-10-12T10:31:45.744Z,9.47
2018-10-12T10:34:13.974Z,9.03
2018-10-12T10:36:42.068Z,8.90
2018-10-12T10:39:11.336Z,8.70
2018-10-12T10:41:39.484Z,9.10
2018-10-12T10:44:07.642Z,8.30
2018-10-12T10:46:35.836Z,9.23
2018-10-12T10:49:04.096Z,8.87
2018-10-12T10:51:32.320Z,8.60
2018-10-12T10:54:00.480Z,8.77
2018-10-12T10:56:28.593Z,8.63
2018-10-12T10:58:56.745Z,8.47
2018-10-12T11:01:24.877Z,8.67
2018-10-12T11:03:52.993Z,7.80
2018-10-12T11:06:21.184Z,8.23
2018-10-12T11:08:49.253Z,8.30
2018-10-12T11:11:17.458Z,8.57
2018-10-12T11:13:45.707Z,8.93
2018-10-12T11:16:13.906Z,8.27
2018-10-12T11:18:42.040Z,8.10
2018-10-12T11:21:10.222Z,7.77
2018-10-12T11:23:38.331Z,7.73
2018-10-12T11:26:06.478Z,6.80
2018-10-12T11:28:34.619Z,7.70
2018-10-12T11:31:02.812Z,6.57
2018-10-12T11:33:30.981Z,6.70
2018-10-12T11:35:59.131Z,7.47
2018-10-12T11:38:27.357Z,7.10
2018-10-12T11:40:55.530Z,6.43
2018-10-12T11:43:26.349Z,6.90
2018-10-12T11:45:54.470Z,6.63
2018-10-12T11:48:22.670Z,7.30
2018-10-12T11:50:51.046Z,8.33
2018-10-12T11:53:19.494Z,7.50
2018-10-12T11:55:47.669Z,7.50
2018-10-12T11:58:15.790Z,6.50
2018-10-12T12:00:44.111Z,6.67
2018-10-12T12:03:12.359Z,6.97
2018-10-12T12:05:40.792Z,7.60
2018-10-12T12:08:09.999Z,8.03
2018-10-12T12:10:38.616Z,7.40
2018-10-12T12:13:07.021Z,7.30
2018-10-12T12:15:35.216Z,7.00
2018-10-12T12:18:03.403Z,6.83
2018-10-12T12:20:31.598Z,6.77
2018-10-12T12:22:59.770Z,6.30
2018-10-12T12:25:27.889Z,6.53
2018-10-12T12:27:56.070Z,7.00
2018-10-12T12:30:24.203Z,6.47
2018-10-12T12:32:52.353Z,6.70
2018-10-12T12:35:20.700Z,6.03
2018-10-12T12:37:48.690Z,6.27
2018-10-12T12:40:16.843Z,6.80
2018-10-12T12:42:44.951Z,6.80
2018-10-12T12:45:13.043Z,6.47
2018-10-12T12:47:41.325Z,6.47
2018-10-12T12:50:09.456Z,5.80
2018-10-12T12:52:37.749Z,5.90
2018-10-12T12:55:05.978Z,5.57
2018-10-12T12:57:34.141Z,6.30
2018-10-12T13:00:02.437Z,6.43
2018-10-12T13:02:30.584Z,5.90
2018-10-12T13:04:58.756Z,5.70
2018-10-12T13:07:26.925Z,5.73
2018-10-12T13:09:55.109Z,5.90
2018-10-12T13:12:23.247Z,5.17
2018-10-12T13:14:51.409Z,5.87
2018-10-12T13:17:19.595Z,5.23
2018-10-12T13:19:47.747Z,5.10
2018-10-12T13:22:15.884Z,4.77
2018-10-12T13:24:44.105Z,5.83
2018-10-12T13:27:12.242Z,6.20
2018-10-12T13:29:40.420Z,5.63
2018-10-12T13:32:08.683Z,5.43
2018-10-12T13:34:37.068Z,5.70
2018-10-12T13:37:05.425Z,5.50
2018-10-12T13:39:33.605Z,5.10
2018-10-12T13:42:01.927Z,5.90
2018-10-12T13:44:30.193Z,4.67
2018-10-12T13:46:58.516Z,4.90
2018-10-12T13:49:26.796Z,5.73
2018-10-12T13:51:58.561Z,5.30
2018-10-12T13:54:37.183Z,4.90
2018-10-12T13:57:07.296Z,4.83
2018-10-12T13:59:42.573Z,5.20
2018-10-12T14:02:20.217Z,5.47
2018-10-12T14:04:49.964Z,5.43
2018-10-12T14:07:26.690Z,4.07
2018-10-12T14:09:55.400Z,4.80
2018-10-12T14:12:23.641Z,4.97
2018-10-12T14:14:51.881Z,4.50
2018-10-12T14:17:20.041Z,4.63
2018-10-12T14:19:48.224Z,4.53
2018-10-12T14:22:16.317Z,5.43
2018-10-12T14:24:44.500Z,4.93
2018-10-12T14:27:13.077Z,4.70
2018-10-12T14:29:41.506Z,4.40
2018-10-12T14:32:09.813Z,4.93
2018-10-12T14:34:39.237Z,5.20
2018-10-12T14:37:07.658Z,5.10
2018-10-12T14:39:35.874Z,5.30
2018-10-12T14:42:04.823Z,4.70
2018-10-12T14:44:33.197Z,5.20
2018-10-12T14:47:01.375Z,4.97
2018-10-12T14:49:30.585Z,5.47
2018-10-12T14:52:01.007Z,4.90
2018-10-12T14:54:29.497Z,5.23
2018-10-12T14:56:57.965Z,5.20
2018-10-12T14:59:26.641Z,5.23
2018-10-12T15:01:54.944Z,5.20
2018-10-12T15:04:23.160Z,4.07
2018-10-12T15:06:51.685Z,4.40
2018-10-12T15:09:19.946Z,4.67
2018-10-12T15:11:55.256Z,4.77
2018-10-12T15:14:34.275Z,4.97
2018-10-12T15:17:02.566Z,5.70
2018-10-12T15:19:30.917Z,5.60
2018-10-12T15:21:59.238Z,4.90
2018-10-12T15:24:27.535Z,4.70
2018-10-12T15:26:55.800Z,4.93
2018-10-12T21:30:49.999Z,15.70
2018-10-12T21:33:18.644Z,17.07
2018-10-12T21:35:46.834Z,15.93
2018-10-12T21:38:15.073Z,16.90
2018-10-12T21:40:43.307Z,18.33
2018-10-12T21:43:11.498Z,17.30
2018-10-12T21:45:39.804Z,17.87
2018-10-12T21:48:08.070Z,16.37
2018-10-12T21:50:36.396Z,16.30
2018-10-12T21:53:04.641Z,17.60
2018-10-12T21:55:32.808Z,17.07
2018-10-12T21:58:01.116Z,16.10
2018-10-12T22:00:29.332Z,16.10
2018-10-12T22:02:57.596Z,15.20
2018-10-12T22:05:25.840Z,14.60
2018-10-12T22:07:54.147Z,16.30
2018-10-12T22:10:23.252Z,16.37
2018-10-12T22:12:51.556Z,15.50
2018-10-12T22:15:19.835Z,15.20
2018-10-12T22:17:48.074Z,15.93
2018-10-12T22:20:16.314Z,17.77
2018-10-12T22:22:44.644Z,16.90
2018-10-12T22:25:12.883Z,17.90
2018-10-12T22:27:41.121Z,19.40
2018-10-12T22:30:09.428Z,18.07
2018-10-12T22:32:37.676Z,17.27
2018-10-12T22:35:05.971Z,19.17
2018-10-12T22:37:34.220Z,18.30
2018-10-12T22:40:02.449Z,17.67
2018-10-12T22:42:30.685Z,17.13
2018-10-12T22:44:58.946Z,15.57
2018-10-12T22:47:27.238Z,18.77
2018-10-12T22:49:55.548Z,16.63
2018-10-12T22:52:23.797Z,16.33
2018-10-12T22:54:52.076Z,14.37
2018-10-12T22:57:20.386Z,14.73
2018-10-12T22:59:48.646Z,14.30
2018-10-12T23:02:23.372Z,15.87
2018-10-12T23:04:51.617Z,16.07
2018-10-12T23:07:19.908Z,16.17
2018-10-12T23:09:48.176Z,16.13
2018-10-12T23:12:16.433Z,16.03
2018-10-12T23:14:44.718Z,15.73
2018-10-12T23:17:13.055Z,14.90
2018-10-12T23:19:41.346Z,15.73
2018-10-12T23:22:09.546Z,16.10
2018-10-12T23:24:37.852Z,15.33
2018-10-12T23:27:06.431Z,15.37
2018-10-12T23:29:34.673Z,15.97
2018-10-12T23:32:02.983Z,16.70
2018-10-12T23:34:31.250Z,15.23
2018-10-12T23:36:59.478Z,16.17
2018-10-12T23:39:27.731Z,15.33
2018-10-12T23:41:55.958Z,16.77
2018-10-12T23:44:24.174Z,17.07
2018-10-12T23:46:52.454Z,17.37
2018-10-12T23:49:20.738Z,17.83
2018-10-12T23:51:49.053Z,17.87
2018-10-12T23:54:17.318Z,18.97
2018-10-12T23:56:45.573Z,17.17
2018-10-12T23:59:13.904Z,17.70
